Time;durP1;ratioP1;P1;durP2;ratioP2;P2;SDS_P1;SDS_P2;PMS_P1;PMS_P2;Temp;Humidity;BMP_temperature;BMP_pressure;BME280_temperature;BME280_humidity;BME280_pressure;Samples;Min_cycle;Max_cycle;Signal;HPM_P1;HPM_P2
2023/01/14 00:01:18;;;;;;;14.65;3.88;;;;;;;;;;2078958;28;20026;-71
2023/01/14 00:02:37;;;;;;;18.00;3.60;;;;;;;;;;2078623;28;20034;-71
2023/01/14 00:03:57;;;;;;;10.18;3.17;;;;;;;;;;2078372;28;20493;-71
2023/01/14 00:05:16;;;;;;;10.55;3.22;;;;;;;;;;2077408;28;20029;-71
2023/01/14 00:06:35;;;;;;;17.25;4.60;;;;;;;;;;2078930;28;20029;-71
2023/01/14 00:07:54;;;;;;;15.73;4.00;;;;;;;;;;2077040;28;20030;-71
2023/01/14 00:09:13;;;;;;;13.85;3.53;;;;;;;;;;2079085;28;20037;-71
2023/01/14 00:10:32;;;;;;;11.80;3.92;;;;;;;;;;2075305;28;20041;-71
2023/01/14 00:11:51;;;;;;;9.55;3.63;;;;;;;;;;2079094;28;20049;-71
2023/01/14 00:13:10;;;;;;;22.33;3.63;;;;;;;;;;2079612;28;20029;-71
2023/01/14 00:14:30;;;;;;;14.52;3.30;;;;;;;;;;2079946;28;20392;-70
2023/01/14 00:15:50;;;;;;;16.80;3.35;;;;;;;;;;2079315;28;20038;-73
2023/01/14 00:17:09;;;;;;;11.52;3.58;;;;;;;;;;2079368;28;20493;-71
2023/01/14 00:18:29;;;;;;;12.60;4.13;;;;;;;;;;2076730;28;20034;-70
2023/01/14 00:19:48;;;;;;;12.75;3.17;;;;;;;;;;2080618;28;20038;-71
2023/01/14 00:21:12;;;;;;;9.70;2.95;;;;;;;;;;2078730;28;20037;-71
2023/01/14 00:22:31;;;;;;;10.80;3.05;;;;;;;;;;2080768;28;20034;-71
2023/01/14 00:23:52;;;;;;;11.52;3.15;;;;;;;;;;2080302;28;20398;-71
2023/01/14 00:25:14;;;;;;;11.93;3.10;;;;;;;;;;2079592;28;20056;-71
2023/01/14 00:26:34;;;;;;;11.38;2.72;;;;;;;;;;2077698;28;20038;-71
2023/01/14 00:27:52;;;;;;;9.18;2.88;;;;;;;;;;2076555;28;20687;-70
2023/01/14 00:29:16;;;;;;;12.35;2.88;;;;;;;;;;2078443;28;20041;-71
2023/01/14 00:30:35;;;;;;;13.43;2.60;;;;;;;;;;2078266;28;20038;-71
2023/01/14 00:31:54;;;;;;;16.20;2.92;;;;;;;;;;2081330;28;20394;-71
2023/01/14 00:33:14;;;;;;;8.27;3.03;;;;;;;;;;2078248;28;20013;-71
2023/01/14 00:34:35;;;;;;;12.23;3.20;;;;;;;;;;2081090;28;20022;-71
2023/01/14 00:35:54;;;;;;;11.80;2.70;;;;;;;;;;2077799;28;20022;-71
2023/01/14 00:37:13;;;;;;;10.88;3.15;;;;;;;;;;2078849;28;20482;-71
2023/01/14 00:38:32;;;;;;;9.57;2.70;;;;;;;;;;2078274;28;20025;-70
2023/01/14 00:39:50;;;;;;;9.07;2.88;;;;;;;;;;2080362;28;20034;-71
2023/01/14 00:41:10;;;;;;;8.52;2.75;;;;;;;;;;2078292;28;20037;-71
2023/01/14 00:42:29;;;;;;;11.95;2.78;;;;;;;;;;2079121;28;20028;-71
2023/01/14 00:43:50;;;;;;;14.05;2.70;;;;;;;;;;2077685;28;20029;-71
2023/01/14 00:45:09;;;;;;;11.13;3.03;;;;;;;;;;2077895;28;20441;-71
2023/01/14 00:46:29;;;;;;;11.40;3.10;;;;;;;;;;2078589;28;20151;-71
2023/01/14 00:47:48;;;;;;;11.40;3.28;;;;;;;;;;2076850;28;20034;-71
2023/01/14 00:49:12;;;;;;;9.18;2.90;;;;;;;;;;2077542;28;20046;-71
2023/01/14 00:50:32;;;;;;;11.70;2.95;;;;;;;;;;2080104;28;20494;-71
2023/01/14 00:51:51;;;;;;;12.57;3.08;;;;;;;;;;2078571;28;20033;-69
2023/01/14 00:53:10;;;;;;;11.38;3.40;;;;;;;;;;2079015;28;20037;-69
2023/01/14 00:54:29;;;;;;;8.43;2.83;;;;;;;;;;2080974;28;20465;-69
2023/01/14 00:55:48;;;;;;;8.52;3.28;;;;;;;;;;2079539;28;20041;-69
2023/01/14 00:57:07;;;;;;;7.85;2.60;;;;;;;;;;2079789;28;20025;-69
2023/01/14 00:58:26;;;;;;;11.75;2.80;;;;;;;;;;2078699;28;20041;-69
2023/01/14 00:59:44;;;;;;;10.85;3.17;;;;;;;;;;2077663;28;20033;-70
2023/01/14 01:01:04;;;;;;;9.43;3.05;;;;;;;;;;2078744;28;20386;-69
2023/01/14 01:02:23;;;;;;;5.85;2.78;;;;;;;;;;2079817;28;20029;-69
2023/01/14 01:03:43;;;;;;;10.30;3.08;;;;;;;;;;2079710;28;20443;-70
2023/01/14 01:05:02;;;;;;;6.47;2.58;;;;;;;;;;2078742;28;20041;-69
2023/01/14 01:06:22;;;;;;;8.32;2.20;;;;;;;;;;2078416;28;20427;-70
2023/01/14 01:07:42;;;;;;;5.10;2.10;;;;;;;;;;2079151;28;20033;-69
2023/01/14 01:09:01;;;;;;;6.60;2.40;;;;;;;;;;2078998;28;20168;-70
2023/01/14 01:10:19;;;;;;;5.18;1.88;;;;;;;;;;2080012;28;20025;-70
2023/01/14 01:11:38;;;;;;;5.47;1.42;;;;;;;;;;2078038;28;20022;-70
2023/01/14 01:12:57;;;;;;;11.35;2.00;;;;;;;;;;2078397;28;20057;-70
2023/01/14 01:14:16;;;;;;;7.38;2.05;;;;;;;;;;2079021;28;20038;-70
2023/01/14 01:15:36;;;;;;;6.43;1.40;;;;;;;;;;2079333;28;20025;-69
2023/01/14 01:16:54;;;;;;;4.38;1.30;;;;;;;;;;2078105;28;20037;-70
2023/01/14 01:18:13;;;;;;;4.10;0.90;;;;;;;;;;2078548;28;20156;-70
2023/01/14 01:19:32;;;;;;;3.33;1.30;;;;;;;;;;2076246;28;20029;-70
2023/01/14 01:20:59;;;;;;;4.35;1.30;;;;;;;;;;2079762;28;20121;-70
2023/01/14 01:22:18;;;;;;;5.43;1.48;;;;;;;;;;2080349;28;20049;-70
2023/01/14 01:23:40;;;;;;;5.45;0.95;;;;;;;;;;2078475;28;20026;-70
2023/01/14 01:24:59;;;;;;;5.85;1.30;;;;;;;;;;2078381;28;20025;-70
2023/01/14 01:26:20;;;;;;;1.60;1.15;;;;;;;;;;2078408;28;20437;-70
2023/01/14 01:27:39;;;;;;;2.63;0.90;;;;;;;;;;2080749;28;20467;-70
2023/01/14 01:28:58;;;;;;;1.27;0.73;;;;;;;;;;2077437;28;20033;-70
2023/01/14 01:30:17;;;;;;;1.42;0.77;;;;;;;;;;2079017;28;20096;-70
2023/01/14 01:31:36;;;;;;;2.28;0.70;;;;;;;;;;2079387;28;20545;-70
2023/01/14 01:32:55;;;;;;;3.80;1.10;;;;;;;;;;2078032;28;20029;-70
2023/01/14 01:34:14;;;;;;;2.95;0.88;;;;;;;;;;2078430;28;20026;-70
2023/01/14 01:35:33;;;;;;;3.53;1.05;;;;;;;;;;2077632;28;20057;-70
2023/01/14 01:36:52;;;;;;;1.88;0.75;;;;;;;;;;2076792;28;20045;-70
2023/01/14 01:38:11;;;;;;;2.22;1.08;;;;;;;;;;2079178;28;20045;-70
2023/01/14 01:39:30;;;;;;;5.88;1.35;;;;;;;;;;2078720;28;20033;-70
2023/01/14 01:40:48;;;;;;;3.10;1.05;;;;;;;;;;2078719;28;20022;-70
2023/01/14 01:42:18;;;;;;;6.35;1.00;;;;;;;;;;2078471;28;20034;-70
2023/01/14 01:43:55;;;;;;;2.50;0.75;;;;;;;;;;2080088;28;20034;-70
2023/01/14 01:45:14;;;;;;;1.63;0.95;;;;;;;;;;2078281;28;20022;-70
2023/01/14 01:46:34;;;;;;;4.80;1.10;;;;;;;;;;2078315;28;20070;-70
2023/01/14 01:47:59;;;;;;;5.72;0.90;;;;;;;;;;2079396;28;20030;-71
2023/01/14 01:49:23;;;;;;;4.20;0.88;;;;;;;;;;2078536;28;20013;-70
2023/01/14 01:50:44;;;;;;;3.03;1.00;;;;;;;;;;2079291;28;20148;-70
2023/01/14 01:52:09;;;;;;;2.33;1.05;;;;;;;;;;2079540;28;20117;-70
2023/01/14 01:53:29;;;;;;;5.80;1.20;;;;;;;;;;2080333;28;20029;-70
2023/01/14 01:54:51;;;;;;;4.72;1.55;;;;;;;;;;2078134;28;20053;-70
2023/01/14 01:56:12;;;;;;;2.83;1.00;;;;;;;;;;2079767;28;20108;-70
2023/01/14 01:57:31;;;;;;;6.25;1.65;;;;;;;;;;2077782;28;20406;-70
2023/01/14 01:58:51;;;;;;;4.90;1.42;;;;;;;;;;2078144;28;20037;-70
2023/01/14 02:00:10;;;;;;;3.10;1.25;;;;;;;;;;2079131;28;20049;-70
2023/01/14 02:01:29;;;;;;;10.30;1.90;;;;;;;;;;2078762;28;20034;-70
2023/01/14 02:02:51;;;;;;;6.57;1.85;;;;;;;;;;2078400;28;20033;-70
2023/01/14 02:04:11;;;;;;;6.35;1.88;;;;;;;;;;2078590;28;20597;-70
2023/01/14 02:05:30;;;;;;;7.57;1.80;;;;;;;;;;2078026;28;20061;-70
2023/01/14 02:06:49;;;;;;;4.10;1.80;;;;;;;;;;2080373;28;20033;-70
2023/01/14 02:08:08;;;;;;;4.72;1.77;;;;;;;;;;2078747;28;20041;-69
2023/01/14 02:09:27;;;;;;;8.70;2.30;;;;;;;;;;2079252;28;20057;-70
2023/01/14 02:10:46;;;;;;;6.03;2.00;;;;;;;;;;2078656;28;20073;-70
2023/01/14 02:12:12;;;;;;;5.55;2.22;;;;;;;;;;2077589;28;20034;-70
2023/01/14 02:13:36;;;;;;;8.68;2.80;;;;;;;;;;2079110;28;20021;-70
2023/01/14 02:15:05;;;;;;;10.07;2.42;;;;;;;;;;2079654;28;20029;-69
2023/01/14 02:16:59;;;;;;;10.13;2.92;;;;;;;;;;2079118;28;20061;-71
2023/01/14 02:18:29;;;;;;;8.77;3.00;;;;;;;;;;2074859;28;20037;-70
2023/01/14 02:19:58;;;;;;;6.10;1.98;;;;;;;;;;2078300;28;20506;-70
2023/01/14 02:21:22;;;;;;;9.48;2.95;;;;;;;;;;2080241;28;20116;-70
2023/01/14 02:22:56;;;;;;;7.40;2.53;;;;;;;;;;2078195;28;20029;-69
2023/01/14 02:24:30;;;;;;;7.72;2.83;;;;;;;;;;2080451;28;20105;-70
2023/01/14 02:25:49;;;;;;;;;;;;;;;;;;2078411;28;20449;-70
2023/01/14 02:27:08;;;;;;;10.38;2.85;;;;;;;;;;2079008;28;19913;-70
2023/01/14 02:28:45;;;;;;;13.32;2.72;;;;;;;;;;2076759;28;20041;-70
2023/01/14 02:30:07;;;;;;;14.15;2.83;;;;;;;;;;2075466;28;20041;-70
2023/01/14 02:31:45;;;;;;;6.40;2.35;;;;;;;;;;2076578;28;20933;-70
2023/01/14 02:33:16;;;;;;;13.93;3.22;;;;;;;;;;2076285;28;20041;-70
2023/01/14 02:34:38;;;;;;;10.25;3.17;;;;;;;;;;2076317;28;20025;-70
2023/01/14 02:35:57;;;;;;;13.40;3.42;;;;;;;;;;2078507;28;20033;-70
2023/01/14 02:37:33;;;;;;;9.15;2.95;;;;;;;;;;2078297;28;20387;-70
2023/01/14 02:39:00;;;;;;;14.20;3.40;;;;;;;;;;2078623;28;20038;-70
2023/01/14 02:40:29;;;;;;;14.25;3.33;;;;;;;;;;2080948;28;20029;-70
2023/01/14 02:45:21;;;;;;;7.10;3.08;;;;;;;;;;2078084;28;20501;-70
2023/01/14 02:46:42;;;;;;;14.02;2.95;;;;;;;;;;2078566;28;20495;-70
2023/01/14 02:48:02;;;;;;;10.45;3.65;;;;;;;;;;2079370;28;20033;-70
2023/01/14 02:49:26;;;;;;;9.52;3.95;;;;;;;;;;2077365;28;20811;-70
2023/01/14 02:50:45;;;;;;;6.55;2.80;;;;;;;;;;2078108;28;20045;-70
2023/01/14 02:52:05;;;;;;;8.00;3.40;;;;;;;;;;2079727;28;20474;-70
2023/01/14 02:53:24;;;;;;;10.68;3.85;;;;;;;;;;2076166;28;20506;-70
2023/01/14 02:54:54;;;;;;;13.75;5.28;;;;;;;;;;2077894;28;20113;-70
2023/01/14 02:56:13;;;;;;;6.35;2.40;;;;;;;;;;2080471;28;20498;-70
2023/01/14 02:57:32;;;;;;;8.75;2.70;;;;;;;;;;2076855;28;20394;-69
2023/01/14 02:59:03;;;;;;;9.32;3.05;;;;;;;;;;2077974;28;20145;-70
2023/01/14 03:00:34;;;;;;;9.63;2.22;;;;;;;;;;2076959;28;20030;-70
2023/01/14 03:01:53;;;;;;;11.75;3.08;;;;;;;;;;2078992;28;20033;-70
2023/01/14 03:03:38;;;;;;;9.38;2.63;;;;;;;;;;2077394;28;20034;-70
2023/01/14 03:04:57;;;;;;;;;;;;;;;;;;2080198;28;20046;-71
2023/01/14 03:06:23;;;;;;;9.05;2.45;;;;;;;;;;2079319;28;19905;-70
2023/01/14 03:07:53;;;;;;;7.55;2.63;;;;;;;;;;2080245;28;20062;-70
2023/01/14 03:09:31;;;;;;;10.60;3.17;;;;;;;;;;2078857;28;20040;-71
2023/01/14 03:10:55;;;;;;;12.52;3.08;;;;;;;;;;2078358;28;20421;-71
2023/01/14 03:12:23;;;;;;;15.32;2.90;;;;;;;;;;2078802;28;20037;-71
2023/01/14 03:13:48;;;;;;;10.57;2.65;;;;;;;;;;2075226;28;20029;-70
2023/01/14 03:15:07;;;;;;;6.70;2.70;;;;;;;;;;2078177;28;20068;-69
2023/01/14 03:16:29;;;;;;;17.95;2.50;;;;;;;;;;2078604;28;20030;-69
2023/01/14 03:18:01;;;;;;;11.05;3.33;;;;;;;;;;2078393;28;20026;-69
2023/01/14 03:19:29;;;;;;;6.75;2.90;;;;;;;;;;2076090;28;20033;-70
2023/01/14 03:21:09;;;;;;;6.53;2.33;;;;;;;;;;2078766;28;20038;-69
2023/01/14 03:22:29;;;;;;;8.30;2.88;;;;;;;;;;2080131;28;20037;-69
2023/01/14 03:24:00;;;;;;;8.05;2.25;;;;;;;;;;2077814;28;20021;-69
2023/01/14 03:25:22;;;;;;;9.38;2.88;;;;;;;;;;2078281;28;20120;-70
2023/01/14 03:26:44;;;;;;;8.68;2.45;;;;;;;;;;2078970;28;20025;-69
2023/01/14 03:28:05;;;;;;;9.88;2.97;;;;;;;;;;2079105;28;20021;-70
2023/01/14 03:29:27;;;;;;;9.63;2.22;;;;;;;;;;2078505;28;20026;-69
2023/01/14 03:30:51;;;;;;;9.40;2.65;;;;;;;;;;2079299;28;20033;-70
2023/01/14 03:32:14;;;;;;;9.77;2.25;;;;;;;;;;2082380;28;20033;-69
2023/01/14 03:33:35;;;;;;;12.55;2.35;;;;;;;;;;2079051;28;20029;-69
2023/01/14 03:34:59;;;;;;;6.93;2.45;;;;;;;;;;2079394;28;20037;-70
2023/01/14 03:36:19;;;;;;;7.57;2.40;;;;;;;;;;2080225;28;20014;-70
2023/01/14 03:37:41;;;;;;;7.55;2.40;;;;;;;;;;2076219;28;20021;-69
2023/01/14 03:39:04;;;;;;;6.03;1.73;;;;;;;;;;2079655;28;20533;-70
2023/01/14 03:40:25;;;;;;;5.70;1.90;;;;;;;;;;2082214;28;20067;-69
2023/01/14 03:43:32;;;;;;;12.35;2.63;;;;;;;;;;2079943;28;20025;-69
2023/01/14 03:44:51;;;;;;;6.03;1.90;;;;;;;;;;2086470;28;20068;-69
2023/01/14 03:46:10;;;;;;;4.68;2.33;;;;;;;;;;2084121;28;20053;-69
2023/01/14 03:47:31;;;;;;;7.25;2.40;;;;;;;;;;2080070;28;20104;-69
2023/01/14 03:48:50;;;;;;;4.78;2.13;;;;;;;;;;2079699;28;20052;-69
2023/01/14 03:50:14;;;;;;;5.80;2.33;;;;;;;;;;2080303;28;20452;-69
2023/01/14 03:51:44;;;;;;;11.13;2.25;;;;;;;;;;2079551;28;20037;-69
2023/01/14 03:53:03;;;;;;;6.40;2.15;;;;;;;;;;2080721;28;20049;-70
2023/01/14 03:54:26;;;;;;;13.00;2.47;;;;;;;;;;2080133;28;20037;-69
2023/01/14 03:56:08;;;;;;;4.55;1.80;;;;;;;;;;2081855;28;20038;-69
2023/01/14 03:57:39;;;;;;;10.02;2.50;;;;;;;;;;2079297;28;20068;-69
2023/01/14 03:59:02;;;;;;;13.05;2.30;;;;;;;;;;2078090;28;20378;-69
2023/01/14 04:00:28;;;;;;;9.82;1.85;;;;;;;;;;2078807;28;20033;-69
2023/01/14 04:01:49;;;;;;;5.60;1.63;;;;;;;;;;2079548;28;20030;-69
2023/01/14 04:03:09;;;;;;;5.97;2.35;;;;;;;;;;2078944;28;20037;-70
2023/01/14 04:04:28;;;;;;;8.73;2.42;;;;;;;;;;2078251;28;20041;-69
2023/01/14 04:05:47;;;;;;;6.90;2.13;;;;;;;;;;2081119;28;20486;-70
2023/01/14 04:07:06;;;;;;;5.30;2.15;;;;;;;;;;2079670;28;20037;-70
2023/01/14 04:08:25;;;;;;;6.28;3.10;;;;;;;;;;2079833;28;20034;-70
2023/01/14 04:09:44;;;;;;;9.50;2.90;;;;;;;;;;2079437;28;20116;-69
2023/01/14 04:11:03;;;;;;;17.05;6.63;;;;;;;;;;2078688;28;20116;-70
2023/01/14 04:12:22;;;;;;;7.50;2.42;;;;;;;;;;2081419;28;20406;-69
2023/01/14 04:15:22;;;;;;;8.25;2.90;;;;;;;;;;2078749;28;20029;-69
2023/01/14 04:16:41;;;;;;;7.53;2.25;;;;;;;;;;2080289;28;20029;-70
2023/01/14 04:18:00;;;;;;;7.10;2.08;;;;;;;;;;2081159;28;20030;-69
2023/01/14 04:19:19;;;;;;;11.98;2.33;;;;;;;;;;2077639;28;20026;-69
2023/01/14 04:20:38;;;;;;;9.95;1.95;;;;;;;;;;2074857;28;20747;-69
2023/01/14 04:21:57;;;;;;;4.63;1.63;;;;;;;;;;2078717;28;20033;-70
2023/01/14 04:23:16;;;;;;;5.07;1.80;;;;;;;;;;2076642;28;20037;-69
2023/01/14 04:24:35;;;;;;;11.45;1.92;;;;;;;;;;2078366;28;20037;-69
2023/01/14 04:25:54;;;;;;;5.45;1.98;;;;;;;;;;2080514;28;20030;-70
2023/01/14 04:27:13;;;;;;;4.95;1.70;;;;;;;;;;2080466;28;20108;-69
2023/01/14 04:28:32;;;;;;;9.35;2.13;;;;;;;;;;2077067;28;20120;-70
2023/01/14 04:29:50;;;;;;;5.97;1.60;;;;;;;;;;2075819;28;20037;-69
2023/01/14 04:31:09;;;;;;;4.00;1.90;;;;;;;;;;2078132;28;20033;-69
2023/01/14 04:32:28;;;;;;;4.53;1.83;;;;;;;;;;2080130;28;20061;-69
2023/01/14 04:33:47;;;;;;;4.70;1.85;;;;;;;;;;2080708;28;20022;-69
2023/01/14 04:35:06;;;;;;;4.15;1.83;;;;;;;;;;2077482;28;20037;-70
2023/01/14 04:36:25;;;;;;;10.05;2.45;;;;;;;;;;2080707;28;20049;-69
2023/01/14 04:37:45;;;;;;;8.30;1.85;;;;;;;;;;2080366;28;20033;-69
2023/01/14 04:39:04;;;;;;;7.30;2.05;;;;;;;;;;2081108;28;20441;-69
2023/01/14 04:40:23;;;;;;;12.50;2.50;;;;;;;;;;2080819;28;20038;-70
2023/01/14 04:43:21;;;;;;;4.82;1.67;;;;;;;;;;2079133;28;20025;-69
2023/01/14 04:44:40;;;;;;;5.95;1.90;;;;;;;;;;2078399;28;20475;-69
2023/01/14 04:45:59;;;;;;;7.07;2.38;;;;;;;;;;2078927;28;20029;-70
2023/01/14 04:47:18;;;;;;;4.15;1.52;;;;;;;;;;2079197;28;20030;-69
2023/01/14 04:48:36;;;;;;;10.20;2.20;;;;;;;;;;2079258;28;20025;-70
2023/01/14 04:49:56;;;;;;;5.05;2.00;;;;;;;;;;2078941;28;20525;-70
2023/01/14 04:51:15;;;;;;;4.80;1.90;;;;;;;;;;2080351;28;20478;-70
2023/01/14 04:52:34;;;;;;;6.68;1.98;;;;;;;;;;2080952;28;20025;-69
2023/01/14 04:53:54;;;;;;;6.05;2.20;;;;;;;;;;2078909;28;20037;-69
2023/01/14 04:55:12;;;;;;;7.13;2.15;;;;;;;;;;2077191;28;20030;-69
2023/01/14 04:56:31;;;;;;;6.82;1.90;;;;;;;;;;2080072;28;20041;-69
2023/01/14 04:57:50;;;;;;;5.40;1.80;;;;;;;;;;2080471;28;20029;-69
2023/01/14 04:59:10;;;;;;;11.57;2.58;;;;;;;;;;2077515;28;20577;-69
2023/01/14 05:00:29;;;;;;;7.03;2.30;;;;;;;;;;2075592;28;20465;-69
2023/01/14 05:01:48;;;;;;;4.53;2.40;;;;;;;;;;2080273;28;20116;-70
2023/01/14 05:03:08;;;;;;;9.48;2.33;;;;;;;;;;2078135;28;20108;-69
2023/01/14 05:04:27;;;;;;;7.13;2.08;;;;;;;;;;2080471;28;20029;-69
2023/01/14 05:05:46;;;;;;;7.18;2.05;;;;;;;;;;2077942;28;20034;-70
2023/01/14 05:07:05;;;;;;;8.77;2.35;;;;;;;;;;2079271;28;20030;-69
2023/01/14 05:08:24;;;;;;;9.40;2.58;;;;;;;;;;2080631;28;20482;-69
2023/01/14 05:09:43;;;;;;;7.25;2.20;;;;;;;;;;2079350;28;20034;-70
2023/01/14 05:11:02;;;;;;;10.93;2.58;;;;;;;;;;2078860;28;20025;-69
2023/01/14 05:12:21;;;;;;;9.40;2.28;;;;;;;;;;2078346;28;20037;-69
2023/01/14 05:13:39;;;;;;;9.80;2.92;;;;;;;;;;2078824;28;20104;-69
2023/01/14 05:14:59;;;;;;;9.20;3.08;;;;;;;;;;2077875;28;20022;-70
2023/01/14 05:16:18;;;;;;;5.10;2.42;;;;;;;;;;2080186;28;20033;-69
2023/01/14 05:17:37;;;;;;;8.10;2.65;;;;;;;;;;2080482;28;20542;-69
2023/01/14 05:18:56;;;;;;;14.55;3.45;;;;;;;;;;2079336;28;20108;-69
2023/01/14 05:20:15;;;;;;;10.55;2.47;;;;;;;;;;2079727;28;20041;-69
2023/01/14 05:21:35;;;;;;;11.75;2.80;;;;;;;;;;2081102;28;20021;-69
2023/01/14 05:22:59;;;;;;;6.13;2.20;;;;;;;;;;2079429;28;20037;-69
2023/01/14 05:24:18;;;;;;;7.60;2.20;;;;;;;;;;2079105;28;20041;-69
2023/01/14 05:25:36;;;;;;;7.70;1.90;;;;;;;;;;2081149;28;20042;-69
2023/01/14 05:26:56;;;;;;;3.63;2.20;;;;;;;;;;2079311;28;20037;-69
2023/01/14 05:28:16;;;;;;;11.43;2.67;;;;;;;;;;2082168;28;20042;-69
2023/01/14 05:29:36;;;;;;;6.80;2.17;;;;;;;;;;2076149;28;20479;-69
2023/01/14 05:30:55;;;;;;;19.70;2.72;;;;;;;;;;2074992;28;20033;-69
2023/01/14 05:32:14;;;;;;;13.30;2.53;;;;;;;;;;2080569;28;20441;-69
2023/01/14 05:33:34;;;;;;;4.78;1.80;;;;;;;;;;2079262;28;20025;-69
2023/01/14 05:34:53;;;;;;;9.20;2.22;;;;;;;;;;2078249;28;20049;-69
2023/01/14 05:36:12;;;;;;;8.32;2.45;;;;;;;;;;2079435;28;20493;-69
2023/01/14 05:37:31;;;;;;;9.45;2.45;;;;;;;;;;2080679;28;20057;-69
2023/01/14 05:38:50;;;;;;;11.82;2.67;;;;;;;;;;2076732;28;20390;-69
2023/01/14 05:40:09;;;;;;;12.27;2.90;;;;;;;;;;2079831;28;20379;-69
2023/01/14 05:41:28;;;;;;;6.88;2.05;;;;;;;;;;2079163;28;20041;-69
2023/01/14 05:46:05;;;;;;;8.43;2.33;;;;;;;;;;2076225;28;20033;-69
2023/01/14 05:47:24;;;;;;;12.75;3.03;;;;;;;;;;2081102;28;20033;-69
2023/01/14 05:48:43;;;;;;;9.32;3.25;;;;;;;;;;2079948;28;20037;-69
2023/01/14 05:50:02;;;;;;;14.30;5.45;;;;;;;;;;2079297;28;20029;-69
2023/01/14 05:51:21;;;;;;;9.27;2.63;;;;;;;;;;2077651;28;20037;-69
2023/01/14 05:52:39;;;;;;;11.15;2.78;;;;;;;;;;2079360;28;20026;-69
2023/01/14 05:53:58;;;;;;;10.88;2.90;;;;;;;;;;2080361;28;20458;-69
2023/01/14 05:55:17;;;;;;;7.05;2.42;;;;;;;;;;2078605;28;20037;-69
2023/01/14 05:56:36;;;;;;;10.70;2.92;;;;;;;;;;2079510;28;20105;-69
2023/01/14 05:57:56;;;;;;;10.10;1.98;;;;;;;;;;2078003;28;20030;-69
2023/01/14 05:59:15;;;;;;;9.00;2.05;;;;;;;;;;2078479;28;20017;-69
2023/01/14 06:07:05;;;;;;;5.55;2.17;;;;;;;;;;2079690;28;20037;-70
2023/01/14 06:08:24;;;;;;;8.75;2.40;;;;;;;;;;2080434;28;20034;-69
2023/01/14 06:09:43;;;;;;;7.93;2.72;;;;;;;;;;2080647;28;20022;-69
2023/01/14 06:11:03;;;;;;;9.57;2.70;;;;;;;;;;2079655;28;20449;-69
2023/01/14 06:12:36;;;;;;;6.38;2.10;;;;;;;;;;2080756;28;20113;-70
2023/01/14 06:13:57;;;;;;;8.57;2.70;;;;;;;;;;2078018;28;20113;-70
2023/01/14 06:15:16;;;;;;;10.00;2.70;;;;;;;;;;2077699;28;20407;-69
2023/01/14 06:16:40;;;;;;;9.55;2.92;;;;;;;;;;2076526;28;20056;-69
2023/01/14 06:18:09;;;;;;;8.98;2.35;;;;;;;;;;2079928;28;20041;-70
2023/01/14 06:19:28;;;;;;;8.18;2.17;;;;;;;;;;2076676;28;20126;-70
2023/01/14 06:20:51;;;;;;;6.07;2.10;;;;;;;;;;2073769;28;20513;-69
2023/01/14 06:22:10;;;;;;;9.18;2.55;;;;;;;;;;2076016;28;20081;-69
2023/01/14 06:23:29;;;;;;;6.38;2.20;;;;;;;;;;2079634;28;20026;-69
2023/01/14 06:24:48;;;;;;;6.85;2.33;;;;;;;;;;2080592;28;20394;-70
2023/01/14 06:26:11;;;;;;;3.15;1.90;;;;;;;;;;2076874;28;20068;-69
2023/01/14 06:27:30;;;;;;;;;;;;;;;;;;2078258;28;20041;-69
2023/01/14 06:28:49;;;;;;;7.45;1.80;;;;;;;;;;2077720;28;19932;-69
2023/01/14 06:30:08;;;;;;;6.78;2.22;;;;;;;;;;2078066;28;20026;-69
2023/01/14 06:31:28;;;;;;;11.48;3.00;;;;;;;;;;2078093;28;20037;-69
2023/01/14 06:32:47;;;;;;;7.93;2.25;;;;;;;;;;2081377;28;20025;-69
2023/01/14 06:34:06;;;;;;;8.05;2.33;;;;;;;;;;2080939;28;20564;-69
2023/01/14 06:35:25;;;;;;;7.57;2.47;;;;;;;;;;2079878;28;20025;-69
2023/01/14 06:36:44;;;;;;;7.32;2.42;;;;;;;;;;2076367;28;20469;-69
2023/01/14 06:38:03;;;;;;;5.85;2.47;;;;;;;;;;2074234;28;20033;-69
2023/01/14 06:39:22;;;;;;;6.65;2.58;;;;;;;;;;2079763;28;20112;-69
2023/01/14 06:40:42;;;;;;;13.10;2.63;;;;;;;;;;2079576;28;20026;-69
2023/01/14 06:42:00;;;;;;;6.57;2.03;;;;;;;;;;2080024;28;20477;-69
2023/01/14 06:43:19;;;;;;;7.03;2.13;;;;;;;;;;2078036;28;20038;-70
2023/01/14 06:44:38;;;;;;;5.63;2.17;;;;;;;;;;2076607;28;20025;-70
2023/01/14 06:45:57;;;;;;;2.70;1.98;;;;;;;;;;2078165;28;20029;-70
2023/01/14 06:47:16;;;;;;;7.35;2.80;;;;;;;;;;2075827;28;20053;-70
2023/01/14 06:48:35;;;;;;;9.20;2.25;;;;;;;;;;2078684;28;20049;-70
2023/01/14 06:49:54;;;;;;;7.97;2.50;;;;;;;;;;2081065;28;20037;-71
2023/01/14 06:51:15;;;;;;;5.88;2.28;;;;;;;;;;2078868;28;20018;-70
2023/01/14 06:52:34;;;;;;;6.93;1.88;;;;;;;;;;2078836;28;20033;-70
2023/01/14 06:53:53;;;;;;;5.88;2.15;;;;;;;;;;2079758;28;20521;-70
2023/01/14 06:55:12;;;;;;;8.07;2.90;;;;;;;;;;2080120;28;20398;-70
2023/01/14 06:56:32;;;;;;;10.95;2.60;;;;;;;;;;2078920;28;20029;-70
2023/01/14 06:57:51;;;;;;;7.88;2.45;;;;;;;;;;2077427;28;20029;-70
2023/01/14 06:59:10;;;;;;;7.80;2.10;;;;;;;;;;2079277;28;20090;-70
2023/01/14 07:00:29;;;;;;;6.55;2.45;;;;;;;;;;2076084;28;20034;-70
2023/01/14 07:01:48;;;;;;;8.23;2.83;;;;;;;;;;2079673;28;21495;-70
2023/01/14 07:03:07;;;;;;;9.93;2.35;;;;;;;;;;2079338;28;20148;-70
2023/01/14 07:04:26;;;;;;;11.13;2.72;;;;;;;;;;2079485;28;20078;-70
2023/01/14 07:05:45;;;;;;;7.80;2.80;;;;;;;;;;2077672;28;20041;-70
2023/01/14 07:07:04;;;;;;;3.72;2.30;;;;;;;;;;2077943;28;20037;-70
2023/01/14 07:08:23;;;;;;;4.70;2.10;;;;;;;;;;2078985;28;20116;-70
2023/01/14 07:09:42;;;;;;;6.65;2.20;;;;;;;;;;2077721;28;20030;-69
2023/01/14 07:11:01;;;;;;;8.27;2.67;;;;;;;;;;2081747;28;20080;-70
2023/01/14 07:12:20;;;;;;;11.57;2.83;;;;;;;;;;2080061;28;20034;-70
2023/01/14 07:13:39;;;;;;;7.05;1.65;;;;;;;;;;2078318;28;21120;-70
2023/01/14 07:14:58;;;;;;;8.93;2.50;;;;;;;;;;2077760;28;20506;-70
2023/01/14 07:16:17;;;;;;;6.28;2.83;;;;;;;;;;2077998;28;20033;-70
2023/01/14 07:17:37;;;;;;;6.97;2.58;;;;;;;;;;2075928;28;20033;-69
2023/01/14 07:18:55;;;;;;;5.93;2.75;;;;;;;;;;2079777;28;20489;-70
2023/01/14 07:20:15;;;;;;;4.72;2.20;;;;;;;;;;2079589;28;20034;-70
2023/01/14 07:21:34;;;;;;;7.28;2.38;;;;;;;;;;2079520;28;20030;-70
2023/01/14 07:22:53;;;;;;;6.78;1.98;;;;;;;;;;2077851;28;20501;-70
2023/01/14 07:24:12;;;;;;;6.60;2.40;;;;;;;;;;2079024;28;20053;-70
2023/01/14 07:25:31;;;;;;;7.45;2.60;;;;;;;;;;2078275;28;20025;-70
2023/01/14 07:26:50;;;;;;;8.38;2.60;;;;;;;;;;2078025;28;20037;-70
2023/01/14 07:28:09;;;;;;;9.57;2.90;;;;;;;;;;2078800;28;20025;-70
2023/01/14 07:29:28;;;;;;;8.00;2.30;;;;;;;;;;2079654;28;20025;-70
2023/01/14 07:30:48;;;;;;;8.05;2.63;;;;;;;;;;2077263;28;20041;-70
2023/01/14 07:32:06;;;;;;;7.60;2.40;;;;;;;;;;2077823;28;20026;-70
2023/01/14 07:33:25;;;;;;;9.57;2.20;;;;;;;;;;2078876;28;20025;-70
2023/01/14 07:34:44;;;;;;;9.90;2.92;;;;;;;;;;2078513;28;20053;-70
2023/01/14 07:36:03;;;;;;;9.13;2.67;;;;;;;;;;2078170;28;20054;-70
2023/01/14 07:37:22;;;;;;;7.53;2.30;;;;;;;;;;2077320;28;20037;-69
2023/01/14 07:38:41;;;;;;;7.03;2.20;;;;;;;;;;2076083;28;20030;-70
2023/01/14 07:40:00;;;;;;;8.23;2.28;;;;;;;;;;2079523;28;20451;-70
2023/01/14 07:41:20;;;;;;;6.60;1.63;;;;;;;;;;2079100;28;20116;-69
2023/01/14 07:42:39;;;;;;;6.50;2.58;;;;;;;;;;2078140;28;20022;-70
2023/01/14 07:43:58;;;;;;;11.05;2.05;;;;;;;;;;2078639;28;20030;-69
2023/01/14 07:45:17;;;;;;;6.28;1.67;;;;;;;;;;2077875;28;20389;-70
2023/01/14 07:46:36;;;;;;;8.95;1.58;;;;;;;;;;2079536;28;20053;-69
2023/01/14 07:47:55;;;;;;;7.32;1.63;;;;;;;;;;2076088;28;20041;-69
2023/01/14 07:49:14;;;;;;;4.75;2.05;;;;;;;;;;2078593;28;20109;-69
2023/01/14 07:50:33;;;;;;;4.57;1.85;;;;;;;;;;2075335;28;20030;-69
2023/01/14 07:51:52;;;;;;;6.45;1.83;;;;;;;;;;2079820;28;20033;-68
2023/01/14 07:53:11;;;;;;;7.70;2.00;;;;;;;;;;2075748;28;20056;-68
2023/01/14 07:54:30;;;;;;;5.68;2.08;;;;;;;;;;2077760;28;20025;-69
2023/01/14 07:55:49;;;;;;;5.40;1.90;;;;;;;;;;2079301;28;20025;-68
2023/01/14 07:57:11;;;;;;;4.80;2.63;;;;;;;;;;2080646;28;20056;-69
2023/01/14 07:58:31;;;;;;;7.82;2.28;;;;;;;;;;2078068;28;20597;-70
2023/01/14 07:59:50;;;;;;;8.02;1.90;;;;;;;;;;2076511;28;20734;-69
2023/01/14 08:01:09;;;;;;;7.68;2.00;;;;;;;;;;2078554;28;20104;-69
2023/01/14 08:02:28;;;;;;;5.43;2.40;;;;;;;;;;2077203;28;20449;-69
2023/01/14 08:03:47;;;;;;;9.05;2.10;;;;;;;;;;2075150;28;20076;-70
2023/01/14 08:05:06;;;;;;;4.82;2.20;;;;;;;;;;2075769;28;20029;-69
2023/01/14 08:06:25;;;;;;;7.88;2.22;;;;;;;;;;2076362;28;20038;-68
2023/01/14 08:07:45;;;;;;;10.88;2.42;;;;;;;;;;2076283;28;20498;-70
2023/01/14 08:09:04;;;;;;;10.50;2.65;;;;;;;;;;2072814;28;20156;-71
2023/01/14 08:10:23;;;;;;;5.53;2.22;;;;;;;;;;2078006;28;20037;-71
2023/01/14 08:11:41;;;;;;;7.88;2.22;;;;;;;;;;2079027;28;20033;-70
2023/01/14 08:13:00;;;;;;;5.55;2.17;;;;;;;;;;2079663;28;20030;-70
2023/01/14 08:14:19;;;;;;;7.57;2.10;;;;;;;;;;2077223;28;20030;-70
2023/01/14 08:15:38;;;;;;;6.13;1.90;;;;;;;;;;2079095;28;20026;-70
2023/01/14 08:16:57;;;;;;;6.43;2.20;;;;;;;;;;2079782;28;20025;-71
2023/01/14 08:18:16;;;;;;;8.68;2.55;;;;;;;;;;2078069;28;20597;-70
2023/01/14 08:19:35;;;;;;;5.65;1.90;;;;;;;;;;2080302;28;20026;-70
2023/01/14 08:20:58;;;;;;;5.90;1.70;;;;;;;;;;2079945;28;20072;-71
2023/01/14 08:22:17;;;;;;;;;;;;;;;;;;2079247;28;20615;-70